Terminal Aerodrome Forecast
Issued by NWS

Home | Current Version | Previous Version | Text Only | Print | Product List | Glossary On
Versions: 1 2 3 4 5 6 7 8 9 10 11 12 13 14 15 16 17 18 19 20 21 22 23 24 25 26 27 28 29 30 31 32 33 34 35 36 37 38 39 40 41 42 43 44 45 46 47 48 49 50
118
FTUS41 KCTP 241948 AAA
TAFBFD
TAF AMD
KBFD 241948Z 2420/2518 25006KT P6SM SCT100 BKN250
     FM242300 27006KT P6SM VCSH BKN070
     FM250200 VRB03KT P6SM OVC100
     FM250700 VRB03KT 4SM BR OVC100
     FM251500 26010G15KT P6SM VCSH BKN050=

USA.gov is the U.S. government's official web portal to all federal, state and local government web resources and services.